Time,TemperatureF,DewpointF,PressureIn,WindDirection,WindDirectionDegrees,WindSpeedMPH,WindSpeedGustMPH,Humidity,HourlyPrecipIn,Conditions,Clouds,dailyrainin,SoftwareType,DateUTC
2013-12-08 00:03:00,-4.9,-12.2,26.92,East,90,2.9,2.9,70,0.00,,,0.00,VWS V14.01,2013-12-08 07:03:00,
2013-12-08 00:08:00,-4.9,-12.2,26.92,East,90,1.5,2.9,70,0.00,,,0.00,VWS V14.01,2013-12-08 07:08:00,
2013-12-08 00:13:00,-4.9,-12.2,26.91,East,90,0.0,2.9,70,0.00,,,0.00,VWS V14.01,2013-12-08 07:13:00,
2013-12-08 00:18:00,-4.9,-12.2,26.91,East,90,1.5,2.2,70,0.00,,,0.00,VWS V14.01,2013-12-08 07:18:00,
2013-12-08 00:23:00,-4.9,-12.2,26.91,ESE,112,1.7,2.2,70,0.00,,,0.00,VWS V14.01,2013-12-08 07:23:00,
2013-12-08 00:28:00,-4.9,-12.2,26.90,ESE,112,4.0,4.0,70,0.00,,,0.00,VWS V14.01,2013-12-08 07:28:00,
2013-12-08 00:33:00,-4.9,-12.2,26.90,SE,135,2.4,2.4,70,0.00,,,0.00,VWS V14.01,2013-12-08 07:33:00,
2013-12-08 00:38:00,-4.9,-12.2,26.89,ENE,68,0.0,3.5,70,0.00,,,0.00,VWS V14.01,2013-12-08 07:38:00,
2013-12-08 00:43:00,-4.7,-12.0,26.89,East,90,3.3,3.5,70,0.00,,,0.00,VWS V14.01,2013-12-08 07:43:00,
2013-12-08 00:48:00,-4.7,-12.0,26.89,East,90,0.0,1.1,70,0.00,,,0.00,VWS V14.01,2013-12-08 07:48:00,
2013-12-08 00:53:00,-4.7,-12.0,26.89,East,90,0.0,1.1,70,0.00,,,0.00,VWS V14.01,2013-12-08 07:53:00,
2013-12-08 00:59:00,-4.7,-12.0,26.88,ESE,112,3.8,4.2,70,0.00,,,0.00,VWS V14.01,2013-12-08 07:59:00,
2013-12-08 01:04:00,-4.7,-12.0,26.88,ESE,112,1.7,3.8,70,0.00,,,0.00,VWS V14.01,2013-12-08 08:04:00,
2013-12-08 01:09:00,-4.7,-12.0,26.88,East,90,2.0,3.8,70,0.00,,,0.00,VWS V14.01,2013-12-08 08:09:00,
2013-12-08 01:14:00,-4.7,-12.0,26.88,East,90,2.9,3.8,70,0.00,,,0.00,VWS V14.01,2013-12-08 08:14:00,
2013-12-08 01:19:00,-4.7,-12.0,26.89,ESE,112,1.7,2.9,70,0.00,,,0.00,VWS V14.01,2013-12-08 08:19:00,
2013-12-08 01:24:00,-4.3,-11.6,26.88,East,90,1.7,2.9,70,0.00,,,0.00,VWS V14.01,2013-12-08 08:24:00,
2013-12-08 01:29:00,-4.3,-11.6,26.88,ESE,112,0.0,2.9,70,0.00,,,0.00,VWS V14.01,2013-12-08 08:29:00,
2013-12-08 01:34:00,-4.3,-11.6,26.88,NE,45,1.7,2.4,70,0.00,,,0.00,VWS V14.01,2013-12-08 08:34:00,
2013-12-08 01:39:00,-4.3,-11.6,26.88,NNE,22,0.0,2.4,70,0.00,,,0.00,VWS V14.01,2013-12-08 08:39:00,
2013-12-08 01:44:00,-4.3,-11.6,26.88,ENE,68,2.2,2.4,70,0.00,,,0.00,VWS V14.01,2013-12-08 08:44:00,
2013-12-08 01:49:00,-4.3,-11.6,26.87,NE,45,0.0,2.4,70,0.00,,,0.00,VWS V14.01,2013-12-08 08:49:00,
2013-12-08 01:54:00,-4.3,-11.6,26.87,East,90,0.0,2.4,70,0.00,,,0.00,VWS V14.01,2013-12-08 08:54:00,
2013-12-08 01:59:00,-4.3,-11.6,26.87,ENE,68,0.0,2.4,70,0.00,,,0.00,VWS V14.01,2013-12-08 08:59:00,
2013-12-08 02:04:00,-4.3,-11.6,26.87,ENE,68,0.0,1.3,70,0.00,,,0.00,VWS V14.01,2013-12-08 09:04:00,
2013-12-08 02:09:00,-4.3,-11.6,26.87,East,90,2.0,2.2,70,0.00,,,0.00,VWS V14.01,2013-12-08 09:09:00,
2013-12-08 02:14:00,-4.1,-11.4,26.87,East,90,0.0,2.2,70,0.00,,,0.00,VWS V14.01,2013-12-08 09:14:00,
2013-12-08 02:19:00,-4.1,-11.4,26.86,ENE,68,0.0,2.4,70,0.00,,,0.00,VWS V14.01,2013-12-08 09:19:00,
2013-12-08 02:24:00,-4.1,-11.4,26.86,ENE,68,0.0,2.4,70,0.00,,,0.00,VWS V14.01,2013-12-08 09:24:00,
2013-12-08 02:29:00,-4.1,-11.4,26.86,East,90,1.1,2.4,70,0.00,,,0.00,VWS V14.01,2013-12-08 09:29:00,
2013-12-08 02:34:00,-4.1,-11.4,26.86,ESE,112,1.5,1.5,70,0.00,,,0.00,VWS V14.01,2013-12-08 09:34:00,
2013-12-08 02:39:00,-4.1,-11.4,26.86,East,90,0.0,2.0,70,0.00,,,0.00,VWS V14.01,2013-12-08 09:39:00,
2013-12-08 02:44:00,-4.3,-11.6,26.86,ENE,68,1.3,2.0,70,0.00,,,0.00,VWS V14.01,2013-12-08 09:44:00,
2013-12-08 02:49:00,-4.3,-11.6,26.85,ESE,112,0.0,1.3,70,0.00,,,0.00,VWS V14.01,2013-12-08 09:49:00,
2013-12-08 02:54:00,-4.3,-11.6,26.85,East,90,0.0,1.3,70,0.00,,,0.00,VWS V14.01,2013-12-08 09:54:00,
2013-12-08 02:59:00,-4.3,-11.6,26.85,ENE,68,2.0,2.0,70,0.00,,,0.00,VWS V14.01,2013-12-08 09:59:00,
2013-12-08 03:04:00,-4.3,-11.6,26.84,ENE,68,0.0,2.4,70,0.00,,,0.00,VWS V14.01,2013-12-08 10:04:00,
2013-12-08 03:09:00,-4.5,-11.8,26.85,ENE,68,0.0,2.4,70,0.00,,,0.00,VWS V14.01,2013-12-08 10:09:00,
2013-12-08 03:14:00,-4.7,-12.0,26.84,ENE,68,3.1,3.1,70,0.00,,,0.00,VWS V14.01,2013-12-08 10:14:00,
2013-12-08 03:19:00,-4.7,-12.0,26.84,ENE,68,2.0,3.1,70,0.00,,,0.00,VWS V14.01,2013-12-08 10:19:00,
2013-12-08 03:24:00,-4.9,-12.2,26.84,NE,45,2.0,3.1,70,0.00,,,0.00,VWS V14.01,2013-12-08 10:24:00,
2013-12-08 03:29:00,-4.9,-12.2,26.83,East,90,0.0,3.1,70,0.00,,,0.00,VWS V14.01,2013-12-08 10:29:00,
2013-12-08 03:34:00,-4.9,-12.2,26.83,East,90,0.0,0.0,70,0.00,,,0.00,VWS V14.01,2013-12-08 10:34:00,
2013-12-08 03:39:00,-4.9,-12.2,26.83,East,90,0.0,1.1,70,0.00,,,0.00,VWS V14.01,2013-12-08 10:39:00,
2013-12-08 03:44:00,-4.9,-12.2,26.83,East,90,1.7,1.7,70,0.00,,,0.00,VWS V14.01,2013-12-08 10:44:00,
2013-12-08 03:49:00,-5.0,-12.3,26.83,ENE,68,0.0,1.7,70,0.00,,,0.00,VWS V14.01,2013-12-08 10:49:00,
2013-12-08 03:54:00,-5.0,-12.6,26.83,East,90,0.0,1.7,69,0.00,,,0.00,VWS V14.01,2013-12-08 10:54:00,
2013-12-08 03:59:00,-5.0,-12.6,26.83,ESE,112,0.0,1.7,69,0.00,,,0.00,VWS V14.01,2013-12-08 10:59:00,
2013-12-08 04:04:00,-5.0,-12.6,26.83,NE,45,0.0,0.0,69,0.00,,,0.00,VWS V14.01,2013-12-08 11:04:00,
2013-12-08 04:09:00,-5.0,-12.6,26.83,NE,45,0.0,0.0,69,0.00,,,0.00,VWS V14.01,2013-12-08 11:09:00,
2013-12-08 04:14:00,-5.0,-12.6,26.83,NNE,22,0.0,2.6,69,0.00,,,0.00,VWS V14.01,2013-12-08 11:14:00,
2013-12-08 04:19:00,-5.0,-12.3,26.83,NE,45,0.0,0.0,70,0.00,,,0.00,VWS V14.01,2013-12-08 11:19:00,
2013-12-08 04:24:00,-5.0,-12.3,26.82,NE,45,0.0,0.0,70,0.00,,,0.00,VWS V14.01,2013-12-08 11:24:00,
2013-12-08 04:29:00,-4.9,-12.4,26.83,ENE,68,0.0,0.0,69,0.00,,,0.00,VWS V14.01,2013-12-08 11:29:00,
2013-12-08 04:34:00,-4.9,-12.4,26.82,NE,45,0.0,0.0,69,0.00,,,0.00,VWS V14.01,2013-12-08 11:34:00,
2013-12-08 04:39:00,-4.7,-12.3,26.82,NE,45,0.0,0.0,69,0.00,,,0.00,VWS V14.01,2013-12-08 11:39:00,
2013-12-08 04:44:00,-4.7,-12.3,26.82,NNE,22,0.0,0.0,69,0.00,,,0.00,VWS V14.01,2013-12-08 11:44:00,
2013-12-08 04:50:00,-4.7,-12.3,26.82,NNE,22,0.0,0.0,69,0.00,,,0.00,VWS V14.01,2013-12-08 11:50:00,
2013-12-08 04:55:00,-4.3,-11.9,26.82,NNE,22,0.0,0.0,69,0.00,,,0.00,VWS V14.01,2013-12-08 11:55:00,
2013-12-08 05:00:00,-4.3,-11.9,26.83,NNW,338,0.0,1.7,69,0.00,,,0.00,VWS V14.01,2013-12-08 12:00:00,
2013-12-08 05:05:00,-4.1,-11.7,26.83,North,0,3.3,4.4,69,0.00,,,0.00,VWS V14.01,2013-12-08 12:05:00,
2013-12-08 05:10:00,-4.1,-11.7,26.83,NNW,338,0.0,4.4,69,0.00,,,0.00,VWS V14.01,2013-12-08 12:10:00,
2013-12-08 05:15:00,-4.1,-11.7,26.82,NNW,338,4.0,4.4,69,0.00,,,0.00,VWS V14.01,2013-12-08 12:15:00,
2013-12-08 05:20:00,-4.1,-11.7,26.83,North,0,3.5,4.0,69,0.00,,,0.00,VWS V14.01,2013-12-08 12:20:00,
2013-12-08 05:25:00,-4.1,-11.7,26.82,North,0,3.1,4.0,69,0.00,,,0.00,VWS V14.01,2013-12-08 12:25:00,
2013-12-08 05:30:00,-4.3,-11.9,26.82,NNW,338,0.0,4.0,69,0.00,,,0.00,VWS V14.01,2013-12-08 12:30:00,
2013-12-08 05:35:00,-4.3,-11.9,26.82,North,0,2.0,2.0,69,0.00,,,0.00,VWS V14.01,2013-12-08 12:35:00,
2013-12-08 05:40:00,-4.3,-11.9,26.82,NNW,338,1.7,2.0,69,0.00,,,0.00,VWS V14.01,2013-12-08 12:40:00,
2013-12-08 05:45:00,-4.1,-11.7,26.82,NNW,338,2.2,2.4,69,0.00,,,0.00,VWS V14.01,2013-12-08 12:45:00,
2013-12-08 05:50:00,-4.1,-11.7,26.82,NNW,338,0.0,4.6,69,0.00,,,0.00,VWS V14.01,2013-12-08 12:50:00,
2013-12-08 05:55:00,-4.1,-11.7,26.82,NNW,338,3.5,4.6,69,0.00,,,0.00,VWS V14.01,2013-12-08 12:55:00,
2013-12-08 06:00:00,-4.3,-11.9,26.82,NW,315,2.6,4.6,69,0.00,,,0.00,VWS V14.01,2013-12-08 13:00:00,
2013-12-08 06:05:00,-4.3,-11.9,26.83,NW,315,3.1,3.1,69,0.00,,,0.00,VWS V14.01,2013-12-08 13:05:00,
2013-12-08 06:10:00,-4.3,-11.9,26.83,North,0,2.0,3.1,69,0.00,,,0.00,VWS V14.01,2013-12-08 13:10:00,
2013-12-08 06:15:00,-4.3,-11.9,26.83,North,0,5.8,5.8,69,0.00,,,0.00,VWS V14.01,2013-12-08 13:15:00,
2013-12-08 06:20:00,-4.3,-11.9,26.83,NW,315,4.0,5.8,69,0.00,,,0.00,VWS V14.01,2013-12-08 13:20:00,
2013-12-08 06:25:00,-4.3,-11.9,26.83,NNW,338,1.3,5.8,69,0.00,,,0.00,VWS V14.01,2013-12-08 13:25:00,
2013-12-08 06:30:00,-4.3,-11.9,26.83,North,0,2.2,2.2,69,0.00,,,0.00,VWS V14.01,2013-12-08 13:30:00,
2013-12-08 06:35:00,-4.3,-11.9,26.82,North,0,4.0,5.1,69,0.00,,,0.00,VWS V14.01,2013-12-08 13:35:00,
2013-12-08 06:40:00,-4.3,-11.9,26.83,NE,45,0.0,6.2,69,0.00,,,0.00,VWS V14.01,2013-12-08 13:40:00,
2013-12-08 06:46:00,-4.5,-12.1,26.82,NNW,338,0.0,0.0,69,0.00,,,0.00,VWS V14.01,2013-12-08 13:46:00,
2013-12-08 06:51:00,-4.7,-12.3,26.83,NNW,338,5.1,5.1,69,0.00,,,0.00,VWS V14.01,2013-12-08 13:51:00,
2013-12-08 06:56:00,-4.7,-12.6,26.82,NNW,338,4.4,5.1,68,0.00,,,0.00,VWS V14.01,2013-12-08 13:56:00,
2013-12-08 07:01:00,-4.9,-12.7,26.82,NNW,338,3.1,3.1,68,0.00,,,0.00,VWS V14.01,2013-12-08 14:01:00,
2013-12-08 07:06:00,-4.9,-12.7,26.82,NNW,338,0.0,3.1,68,0.00,,,0.00,VWS V14.01,2013-12-08 14:06:00,
2013-12-08 07:11:00,-4.9,-12.7,26.82,NNW,338,0.0,3.1,68,0.00,,,0.00,VWS V14.01,2013-12-08 14:11:00,
2013-12-08 07:16:00,-4.9,-12.7,26.82,North,0,5.3,5.3,68,0.00,,,0.00,VWS V14.01,2013-12-08 14:16:00,
2013-12-08 07:21:00,-5.0,-12.8,26.82,NNW,338,3.8,5.3,68,0.00,,,0.00,VWS V14.01,2013-12-08 14:21:00,
2013-12-08 07:26:00,-5.2,-13.0,26.82,NW,315,0.0,5.3,68,0.00,,,0.00,VWS V14.01,2013-12-08 14:26:00,
2013-12-08 07:31:00,-5.2,-13.0,26.83,NNW,338,0.0,3.1,68,0.00,,,0.00,VWS V14.01,2013-12-08 14:31:00,
2013-12-08 07:36:00,-5.4,-13.2,26.83,NNW,338,4.2,4.2,68,0.00,,,0.00,VWS V14.01,2013-12-08 14:36:00,
2013-12-08 07:41:00,-5.2,-13.0,26.82,North,0,4.0,4.2,68,0.00,,,0.00,VWS V14.01,2013-12-08 14:41:00,
2013-12-08 07:46:00,-5.2,-13.0,26.83,NNW,338,5.1,5.1,68,0.00,,,0.00,VWS V14.01,2013-12-08 14:46:00,
2013-12-08 07:51:00,-5.4,-13.2,26.83,NW,315,3.8,5.1,68,0.00,,,0.00,VWS V14.01,2013-12-08 14:51:00,
2013-12-08 07:56:00,-5.4,-13.2,26.83,NNW,338,1.5,5.3,68,0.00,,,0.00,VWS V14.01,2013-12-08 14:56:00,
2013-12-08 08:01:00,-5.2,-13.0,26.83,North,0,3.3,3.3,68,0.00,,,0.00,VWS V14.01,2013-12-08 15:01:00,
2013-12-08 08:06:00,-5.2,-13.0,26.83,NNW,338,5.3,5.3,68,0.00,,,0.00,VWS V14.01,2013-12-08 15:06:00,
2013-12-08 08:11:00,-4.9,-12.7,26.83,North,0,2.0,5.3,68,0.00,,,0.00,VWS V14.01,2013-12-08 15:11:00,
2013-12-08 08:16:00,-2.5,-10.1,26.84,NNW,338,4.9,4.9,69,0.00,,,0.00,VWS V14.01,2013-12-08 15:16:00,
2013-12-08 08:21:00,-1.3,-9.3,26.84,NNW,338,3.5,4.9,68,0.00,,,0.00,VWS V14.01,2013-12-08 15:21:00,
2013-12-08 08:26:00,0.1,-8.2,26.84,North,0,0.0,4.9,67,0.00,,,0.00,VWS V14.01,2013-12-08 15:26:00,
2013-12-08 08:31:00,1.9,-6.8,26.84,North,0,2.0,4.4,66,0.00,,,0.00,VWS V14.01,2013-12-08 15:31:00,
2013-12-08 08:36:00,3.0,-6.4,26.84,North,0,1.7,4.4,64,0.00,,,0.00,VWS V14.01,2013-12-08 15:36:00,
2013-12-08 08:41:00,4.6,-5.2,26.84,NNW,338,3.5,4.4,63,0.00,,,0.00,VWS V14.01,2013-12-08 15:41:00,
2013-12-08 08:47:00,8.9,-1.8,26.84,North,0,3.5,3.5,61,0.00,,,0.00,VWS V14.01,2013-12-08 15:47:00,
2013-12-08 08:52:00,11.4,-0.9,26.84,NNW,338,0.0,3.8,57,0.00,,,0.00,VWS V14.01,2013-12-08 15:52:00,
2013-12-08 08:57:00,13.8,0.6,26.84,NW,315,3.3,3.8,55,0.00,,,0.00,VWS V14.01,2013-12-08 15:57:00,
2013-12-08 09:02:00,16.3,1.4,26.85,WNW,292,0.0,0.0,51,0.00,,,0.00,VWS V14.01,2013-12-08 16:02:00,
2013-12-08 09:07:00,18.1,2.6,26.85,WNW,292,0.0,0.0,50,0.00,,,0.00,VWS V14.01,2013-12-08 16:07:00,
2013-12-08 09:12:00,20.4,3.4,26.85,WNW,292,0.0,0.0,47,0.00,,,0.00,VWS V14.01,2013-12-08 16:12:00,
2013-12-08 09:17:00,23.9,5.2,26.85,North,0,0.0,0.0,44,0.00,,,0.00,VWS V14.01,2013-12-08 16:17:00,
2013-12-08 09:22:00,25.5,5.1,26.85,NW,315,0.0,0.0,41,0.00,,,0.00,VWS V14.01,2013-12-08 16:22:00,
2013-12-08 09:27:00,26.7,5.1,26.85,North,0,0.0,0.0,39,0.00,,,0.00,VWS V14.01,2013-12-08 16:27:00,
2013-12-08 09:32:00,28.9,5.9,26.84,NNE,22,0.0,0.0,37,0.00,,,0.00,VWS V14.01,2013-12-08 16:32:00,
2013-12-08 09:37:00,30.7,6.3,26.84,NNE,22,0.0,0.0,35,0.00,,,0.00,VWS V14.01,2013-12-08 16:37:00,
2013-12-08 09:42:00,32.7,7.4,26.85,North,0,0.0,0.0,34,0.00,,,0.00,VWS V14.01,2013-12-08 16:42:00,
2013-12-08 09:47:00,34.3,6.8,26.85,NW,315,0.0,0.0,31,0.00,,,0.00,VWS V14.01,2013-12-08 16:47:00,
2013-12-08 09:52:00,33.6,5.5,26.85,NNW,338,0.0,0.0,30,0.00,,,0.00,VWS V14.01,2013-12-08 16:52:00,
2013-12-08 09:57:00,31.6,3.7,26.85,North,0,0.0,0.0,30,0.00,,,0.00,VWS V14.01,2013-12-08 16:57:00,
2013-12-08 10:02:00,31.1,3.3,26.85,NNE,22,0.0,0.0,30,0.00,,,0.00,VWS V14.01,2013-12-08 17:02:00,
2013-12-08 10:07:00,32.3,4.3,26.85,South,180,0.0,0.8,30,0.00,,,0.00,VWS V14.01,2013-12-08 17:07:00,
2013-12-08 10:12:00,30.3,1.1,26.85,SSE,158,0.0,1.7,28,0.00,,,0.00,VWS V14.01,2013-12-08 17:12:00,
2013-12-08 10:17:00,26.9,-1.1,26.85,WSW,248,0.0,0.0,29,0.00,,,0.00,VWS V14.01,2013-12-08 17:17:00,
2013-12-08 10:22:00,24.9,-2.1,26.85,WSW,248,0.0,0.0,30,0.00,,,0.00,VWS V14.01,2013-12-08 17:22:00,
2013-12-08 10:27:00,22.4,-3.7,26.85,WSW,248,0.0,0.0,31,0.00,,,0.00,VWS V14.01,2013-12-08 17:27:00,
2013-12-08 10:32:00,21.0,-4.2,26.85,SW,225,0.0,0.0,32,0.00,,,0.00,VWS V14.01,2013-12-08 17:32:00,
2013-12-08 10:37:00,19.7,-5.4,26.85,NW,315,0.0,0.0,32,0.00,,,0.00,VWS V14.01,2013-12-08 17:37:00,
2013-12-08 10:42:00,18.1,-6.2,26.85,West,270,0.0,0.0,33,0.00,,,0.00,VWS V14.01,2013-12-08 17:42:00,
2013-12-08 10:47:00,19.7,-3.5,26.85,NW,315,0.0,0.0,35,0.00,,,0.00,VWS V14.01,2013-12-08 17:47:00,
2013-12-08 10:52:00,24.6,0.9,26.84,WNW,292,0.0,0.0,35,0.00,,,0.00,VWS V14.01,2013-12-08 17:52:00,
2013-12-08 10:57:00,25.5,-0.2,26.83,WSW,248,0.0,0.0,32,0.00,,,0.00,VWS V14.01,2013-12-08 17:57:00,
2013-12-08 11:03:00,23.9,-2.3,26.83,WNW,292,0.0,0.0,31,0.00,,,0.00,VWS V14.01,2013-12-08 18:03:00,
2013-12-08 11:08:00,21.7,-4.3,26.83,WNW,292,0.0,0.0,31,0.00,,,0.00,VWS V14.01,2013-12-08 18:08:00,
2013-12-08 11:13:00,18.8,-6.2,26.83,WNW,292,0.0,0.0,32,0.00,,,0.00,VWS V14.01,2013-12-08 18:13:00,
2013-12-08 11:18:00,16.7,-8.0,26.83,WNW,292,0.0,0.0,32,0.00,,,0.00,VWS V14.01,2013-12-08 18:18:00,
2013-12-08 11:23:00,15.9,-8.1,26.82,WNW,292,0.0,0.0,33,0.00,,,0.00,VWS V14.01,2013-12-08 18:23:00,
2013-12-08 11:28:00,18.3,-4.2,26.82,NNW,338,0.0,0.0,36,0.00,,,0.00,VWS V14.01,2013-12-08 18:28:00,
2013-12-08 11:33:00,20.8,-2.5,26.82,NW,315,0.0,0.0,35,0.00,,,0.00,VWS V14.01,2013-12-08 18:33:00,
2013-12-08 11:38:00,22.8,-1.4,26.82,NNE,22,0.0,0.0,34,0.00,,,0.00,VWS V14.01,2013-12-08 18:38:00,
2013-12-08 11:43:00,24.4,-0.6,26.82,North,0,0.0,0.0,33,0.00,,,0.00,VWS V14.01,2013-12-08 18:43:00,
2013-12-08 11:48:00,25.3,-0.4,26.81,NW,315,0.0,0.0,32,0.00,,,0.00,VWS V14.01,2013-12-08 18:48:00,
2013-12-08 11:53:00,26.4,-0.1,26.82,WNW,292,0.0,0.0,31,0.00,,,0.00,VWS V14.01,2013-12-08 18:53:00,
2013-12-08 11:58:00,27.6,0.2,26.81,WNW,292,0.0,2.9,30,0.00,,,0.00,VWS V14.01,2013-12-08 18:58:00,
2013-12-08 12:03:00,26.4,-1.5,26.81,WNW,292,0.0,2.4,29,0.00,,,0.00,VWS V14.01,2013-12-08 19:03:00,
2013-12-08 12:08:00,25.8,-1.4,26.81,NNE,22,3.8,3.8,30,0.00,,,0.00,VWS V14.01,2013-12-08 19:08:00,
2013-12-08 12:13:00,24.9,-2.8,26.81,NNW,338,0.0,3.8,29,0.00,,,0.00,VWS V14.01,2013-12-08 19:13:00,
2013-12-08 12:18:00,23.7,-3.2,26.81,NW,315,2.4,6.2,30,0.00,,,0.00,VWS V14.01,2013-12-08 19:18:00,
2013-12-08 12:23:00,22.8,-3.3,26.81,NNW,338,2.6,6.2,31,0.00,,,0.00,VWS V14.01,2013-12-08 19:23:00,
2013-12-08 12:28:00,21.9,-4.1,26.81,NW,315,0.0,6.2,31,0.00,,,0.00,VWS V14.01,2013-12-08 19:28:00,
2013-12-08 12:33:00,20.8,-5.1,26.82,NNW,338,0.0,0.0,31,0.00,,,0.00,VWS V14.01,2013-12-08 19:33:00,
2013-12-08 12:38:00,20.3,-4.8,26.81,WNW,292,0.0,0.0,32,0.00,,,0.00,VWS V14.01,2013-12-08 19:38:00,
2013-12-08 12:43:00,19.9,-4.6,26.81,WNW,292,0.0,0.0,33,0.00,,,0.00,VWS V14.01,2013-12-08 19:43:00,
2013-12-08 12:48:00,19.5,-4.9,26.81,North,0,0.0,2.9,33,0.00,,,0.00,VWS V14.01,2013-12-08 19:48:00,
2013-12-08 12:53:00,19.4,-5.0,26.81,WSW,248,0.0,2.9,33,0.00,,,0.00,VWS V14.01,2013-12-08 19:53:00,
2013-12-08 12:58:00,19.7,-4.1,26.81,WSW,248,0.0,2.9,34,0.00,,,0.00,VWS V14.01,2013-12-08 19:58:00,
2013-12-08 13:03:00,19.7,-4.1,26.81,WSW,248,0.0,0.0,34,0.00,,,0.00,VWS V14.01,2013-12-08 20:03:00,
2013-12-08 13:08:00,19.5,-4.3,26.81,SW,225,0.0,0.0,34,0.00,,,0.00,VWS V14.01,2013-12-08 20:08:00,
2013-12-08 13:13:00,19.5,-4.3,26.81,SW,225,0.0,0.0,34,0.00,,,0.00,VWS V14.01,2013-12-08 20:13:00,
2013-12-08 13:18:00,18.6,-5.1,26.81,South,180,0.0,0.0,34,0.00,,,0.00,VWS V14.01,2013-12-08 20:18:00,
2013-12-08 13:23:00,17.4,-6.2,26.82,WNW,292,0.0,0.0,34,0.00,,,0.00,VWS V14.01,2013-12-08 20:23:00,
2013-12-08 13:28:00,16.3,-6.5,26.81,SW,225,0.6,1.5,35,0.00,,,0.00,VWS V14.01,2013-12-08 20:28:00,
2013-12-08 13:33:00,15.4,-6.8,26.81,WNW,292,2.2,2.2,36,0.00,,,0.00,VWS V14.01,2013-12-08 20:33:00,
2013-12-08 13:38:00,14.9,-7.2,26.82,West,270,0.0,2.2,36,0.00,,,0.00,VWS V14.01,2013-12-08 20:38:00,
2013-12-08 13:43:00,14.5,-7.0,26.82,SW,225,2.9,2.9,37,0.00,,,0.00,VWS V14.01,2013-12-08 20:43:00,
2013-12-08 13:48:00,14.5,-6.5,26.81,SW,225,0.0,3.1,38,0.00,,,0.00,VWS V14.01,2013-12-08 20:48:00,
2013-12-08 13:53:00,14.1,-6.8,26.82,SW,225,0.0,3.1,38,0.00,,,0.00,VWS V14.01,2013-12-08 20:53:00,
2013-12-08 13:58:00,14.1,-6.8,26.81,SW,225,0.0,3.1,38,0.00,,,0.00,VWS V14.01,2013-12-08 20:58:00,
2013-12-08 14:03:00,14.3,-6.1,26.81,SW,225,0.0,0.0,39,0.00,,,0.00,VWS V14.01,2013-12-08 21:03:00,
2013-12-08 14:08:00,14.3,-6.1,26.82,WSW,248,0.0,0.0,39,0.00,,,0.00,VWS V14.01,2013-12-08 21:08:00,
2013-12-08 14:13:00,14.5,-5.9,26.82,WSW,248,0.0,0.0,39,0.00,,,0.00,VWS V14.01,2013-12-08 21:13:00,
2013-12-08 14:18:00,14.7,-5.2,26.82,SW,225,0.0,1.5,40,0.00,,,0.00,VWS V14.01,2013-12-08 21:18:00,
2013-12-08 14:24:00,14.7,-5.8,26.83,WNW,292,0.0,1.5,39,0.00,,,0.00,VWS V14.01,2013-12-08 21:24:00,
2013-12-08 14:29:00,14.1,-6.3,26.83,WSW,248,0.0,1.5,39,0.00,,,0.00,VWS V14.01,2013-12-08 21:29:00,
2013-12-08 14:34:00,13.8,-6.0,26.83,West,270,0.0,0.0,40,0.00,,,0.00,VWS V14.01,2013-12-08 21:34:00,
2013-12-08 14:39:00,13.2,-6.6,26.83,West,270,0.0,0.0,40,0.00,,,0.00,VWS V14.01,2013-12-08 21:39:00,
2013-12-08 14:44:00,12.9,-6.9,26.83,West,270,0.0,0.0,40,0.00,,,0.00,VWS V14.01,2013-12-08 21:44:00,
2013-12-08 14:49:00,12.7,-6.5,26.83,South,180,4.0,4.0,41,0.00,,,0.00,VWS V14.01,2013-12-08 21:49:00,
2013-12-08 14:54:00,12.0,-7.2,26.84,South,180,0.6,4.0,41,0.00,,,0.00,VWS V14.01,2013-12-08 21:54:00,
2013-12-08 14:59:00,11.4,-7.2,26.84,SSW,202,5.1,5.1,42,0.00,,,0.00,VWS V14.01,2013-12-08 21:59:00,
2013-12-08 15:04:00,10.2,-8.3,26.84,SE,135,0.0,0.0,42,0.00,,,0.00,VWS V14.01,2013-12-08 22:04:00,
2013-12-08 15:09:00,9.3,-8.7,26.85,SE,135,1.3,2.9,43,0.00,,,0.00,VWS V14.01,2013-12-08 22:09:00,
2013-12-08 15:14:00,8.7,-8.7,26.84,SE,135,0.8,2.9,44,0.00,,,0.00,VWS V14.01,2013-12-08 22:14:00,
2013-12-08 15:19:00,7.7,-9.2,26.84,South,180,0.8,4.2,45,0.00,,,0.00,VWS V14.01,2013-12-08 22:19:00,
2013-12-08 15:24:00,6.9,-9.5,26.84,South,180,5.1,5.1,46,0.00,,,0.00,VWS V14.01,2013-12-08 22:24:00,
2013-12-08 15:29:00,6.0,-9.9,26.85,WNW,292,0.0,5.1,47,0.00,,,0.00,VWS V14.01,2013-12-08 22:29:00,
2013-12-08 15:34:00,5.7,-9.7,26.84,NE,45,0.0,0.8,48,0.00,,,0.00,VWS V14.01,2013-12-08 22:34:00,
2013-12-08 15:39:00,5.5,-9.9,26.85,SE,135,0.0,0.8,48,0.00,,,0.00,VWS V14.01,2013-12-08 22:39:00,
2013-12-08 15:44:00,5.3,-10.1,26.85,ESE,112,0.0,0.8,48,0.00,,,0.00,VWS V14.01,2013-12-08 22:44:00,
2013-12-08 15:49:00,5.3,-9.7,26.85,South,180,0.0,2.4,49,0.00,,,0.00,VWS V14.01,2013-12-08 22:49:00,
2013-12-08 15:54:00,5.1,-9.5,26.85,SSW,202,0.0,2.4,50,0.00,,,0.00,VWS V14.01,2013-12-08 22:54:00,
2013-12-08 15:59:00,5.0,-9.6,26.85,SSW,202,1.5,2.4,50,0.00,,,0.00,VWS V14.01,2013-12-08 22:59:00,
2013-12-08 16:04:00,5.0,-9.6,26.85,SSW,202,6.0,6.0,50,0.00,,,0.00,VWS V14.01,2013-12-08 23:04:00,
2013-12-08 16:09:00,5.0,-8.8,26.85,South,180,8.7,8.7,52,0.00,,,0.00,VWS V14.01,2013-12-08 23:09:00,
2013-12-08 16:14:00,4.6,-9.5,26.86,SSE,158,1.3,8.7,51,0.00,,,0.00,VWS V14.01,2013-12-08 23:14:00,
2013-12-08 16:19:00,3.9,-10.2,26.86,SE,135,0.0,1.3,51,0.00,,,0.00,VWS V14.01,2013-12-08 23:19:00,
2013-12-08 16:24:00,3.3,-10.4,26.86,South,180,0.0,1.3,52,0.00,,,0.00,VWS V14.01,2013-12-08 23:24:00,
2013-12-08 16:29:00,3.0,-10.6,26.86,SE,135,4.9,4.9,52,0.00,,,0.00,VWS V14.01,2013-12-08 23:29:00,
2013-12-08 16:34:00,2.4,-11.2,26.87,South,180,0.0,4.9,52,0.00,,,0.00,VWS V14.01,2013-12-08 23:34:00,
2013-12-08 16:39:00,2.1,-11.1,26.87,SSE,158,0.0,4.9,53,0.00,,,0.00,VWS V14.01,2013-12-08 23:39:00,
2013-12-08 16:44:00,1.9,-11.3,26.87,WNW,292,0.0,4.9,53,0.00,,,0.00,VWS V14.01,2013-12-08 23:44:00,
2013-12-08 16:49:00,1.7,-11.5,26.87,ESE,112,0.0,0.0,53,0.00,,,0.00,VWS V14.01,2013-12-08 23:49:00,
2013-12-08 16:54:00,1.7,-11.1,26.87,NNW,338,0.0,2.0,54,0.00,,,0.00,VWS V14.01,2013-12-08 23:54:00,
2013-12-08 16:59:00,1.7,-10.7,26.87,WNW,292,0.0,2.0,55,0.00,,,0.00,VWS V14.01,2013-12-08 23:59:00,
2013-12-08 17:04:00,1.9,-10.5,26.88,West,270,2.9,2.9,55,0.00,,,0.00,VWS V14.01,2013-12-09 00:04:00,
2013-12-08 17:09:00,2.4,-9.0,26.88,North,0,0.0,3.5,58,0.00,,,0.00,VWS V14.01,2013-12-09 00:09:00,
2013-12-08 17:14:00,3.0,-8.1,26.88,North,0,0.0,4.4,59,0.00,,,0.00,VWS V14.01,2013-12-09 00:14:00,
2013-12-08 17:19:00,3.3,-7.8,26.87,NNW,338,2.0,2.0,59,0.00,,,0.00,VWS V14.01,2013-12-09 00:19:00,
2013-12-08 17:24:00,3.9,-6.5,26.88,NW,315,8.7,8.7,61,0.00,,,0.00,VWS V14.01,2013-12-09 00:24:00,
2013-12-08 17:29:00,4.8,-5.7,26.88,WSW,248,4.4,8.7,61,0.00,,,0.00,VWS V14.01,2013-12-09 00:29:00,
2013-12-08 17:34:00,5.3,-5.2,26.88,NW,315,9.3,9.6,61,0.00,,,0.00,VWS V14.01,2013-12-09 00:34:00,
2013-12-08 17:39:00,5.7,-4.5,26.88,North,0,9.6,9.6,62,0.00,,,0.00,VWS V14.01,2013-12-09 00:39:00,
2013-12-08 17:44:00,6.0,-4.2,26.89,North,0,6.0,9.6,62,0.00,,,0.00,VWS V14.01,2013-12-09 00:44:00,
2013-12-08 17:49:00,6.0,-4.2,26.89,East,90,2.0,6.0,62,0.00,,,0.00,VWS V14.01,2013-12-09 00:49:00,
2013-12-08 17:54:00,6.4,-4.2,26.90,WNW,292,0.0,6.0,61,0.00,,,0.00,VWS V14.01,2013-12-09 00:54:00,
2013-12-08 17:59:00,6.0,-4.9,26.90,WNW,292,2.0,6.0,60,0.00,,,0.00,VWS V14.01,2013-12-09 00:59:00,
2013-12-08 18:04:00,5.3,-5.9,26.90,WNW,292,0.0,2.0,59,0.00,,,0.00,VWS V14.01,2013-12-09 01:04:00,
2013-12-08 18:10:00,4.6,-6.6,26.90,WNW,292,0.0,2.0,59,0.00,,,0.00,VWS V14.01,2013-12-09 01:10:00,
2013-12-08 18:15:00,4.2,-6.9,26.90,NNW,338,0.0,2.0,59,0.00,,,0.00,VWS V14.01,2013-12-09 01:15:00,
2013-12-08 18:20:00,3.9,-7.2,26.91,WNW,292,0.0,0.0,59,0.00,,,0.00,VWS V14.01,2013-12-09 01:20:00,
2013-12-08 18:25:00,3.5,-7.3,26.91,North,0,4.2,4.2,60,0.00,,,0.00,VWS V14.01,2013-12-09 01:25:00,
2013-12-08 18:30:00,3.9,-6.2,26.91,NNW,338,2.4,7.6,62,0.00,,,0.00,VWS V14.01,2013-12-09 01:30:00,
2013-12-08 18:35:00,4.8,-5.0,26.91,NNW,338,1.5,2.9,63,0.00,,,0.00,VWS V14.01,2013-12-09 01:35:00,
2013-12-08 18:40:00,5.3,-4.5,26.91,North,0,2.2,6.7,63,0.00,,,0.00,VWS V14.01,2013-12-09 01:40:00,
2013-12-08 18:45:00,5.5,-4.3,26.91,NNE,22,9.1,9.1,63,0.00,,,0.00,VWS V14.01,2013-12-09 01:45:00,
2013-12-08 18:50:00,5.7,-4.2,26.91,ENE,68,7.6,9.1,63,0.00,,,0.00,VWS V14.01,2013-12-09 01:50:00,
2013-12-08 18:55:00,5.5,-4.7,26.92,North,0,0.8,9.1,62,0.00,,,0.00,VWS V14.01,2013-12-09 01:55:00,
2013-12-08 19:00:00,5.5,-4.7,26.92,NNW,338,5.1,9.1,62,0.00,,,0.00,VWS V14.01,2013-12-09 02:00:00,
2013-12-08 19:05:00,5.3,-4.9,26.91,NW,315,4.2,4.2,62,0.00,,,0.00,VWS V14.01,2013-12-09 02:05:00,
2013-12-08 19:10:00,5.0,-5.2,26.91,NNW,338,3.8,5.1,62,0.00,,,0.00,VWS V14.01,2013-12-09 02:10:00,
2013-12-08 19:15:00,4.8,-5.3,26.92,North,0,2.0,5.1,62,0.00,,,0.00,VWS V14.01,2013-12-09 02:15:00,
2013-12-08 19:20:00,4.6,-5.5,26.92,North,0,2.4,3.8,62,0.00,,,0.00,VWS V14.01,2013-12-09 02:20:00,
2013-12-08 19:25:00,4.2,-5.9,26.92,NNW,338,8.0,8.0,62,0.00,,,0.00,VWS V14.01,2013-12-09 02:25:00,
2013-12-08 19:30:00,4.1,-6.0,26.92,North,0,4.2,8.0,62,0.00,,,0.00,VWS V14.01,2013-12-09 02:30:00,
2013-12-08 19:35:00,3.9,-5.9,26.92,NNW,338,5.8,8.5,63,0.00,,,0.00,VWS V14.01,2013-12-09 02:35:00,
2013-12-08 19:40:00,3.5,-6.3,26.92,North,0,9.6,9.6,63,0.00,,,0.00,VWS V14.01,2013-12-09 02:40:00,
2013-12-08 19:45:00,3.5,-5.9,26.93,NNW,338,8.2,8.2,64,0.00,,,0.00,VWS V14.01,2013-12-09 02:45:00,
2013-12-08 19:50:00,3.7,-5.7,26.93,NNW,338,6.0,8.2,64,0.00,,,0.00,VWS V14.01,2013-12-09 02:50:00,
2013-12-08 19:55:00,3.9,-5.2,26.93,North,0,7.3,8.2,65,0.00,,,0.00,VWS V14.01,2013-12-09 02:55:00,
2013-12-08 20:00:00,3.7,-5.7,26.94,North,0,1.5,1.5,64,0.00,,,0.00,VWS V14.01,2013-12-09 03:00:00,
2013-12-08 20:05:00,3.7,-5.7,26.94,NW,315,3.3,3.3,64,0.00,,,0.00,VWS V14.01,2013-12-09 03:05:00,
2013-12-08 20:10:00,3.7,-5.7,26.94,NW,315,5.1,5.1,64,0.00,,,0.00,VWS V14.01,2013-12-09 03:10:00,
2013-12-08 20:15:00,3.9,-5.2,26.94,NW,315,3.8,3.8,65,0.00,,,0.00,VWS V14.01,2013-12-09 03:15:00,
2013-12-08 20:20:00,4.4,-4.8,26.94,North,0,5.1,5.1,65,0.00,,,0.00,VWS V14.01,2013-12-09 03:20:00,
2013-12-08 20:25:00,5.0,-4.2,26.94,NNW,338,2.0,5.1,65,0.00,,,0.00,VWS V14.01,2013-12-09 03:25:00,
2013-12-08 20:30:00,5.5,-3.7,26.94,NNW,338,0.0,0.0,65,0.00,,,0.00,VWS V14.01,2013-12-09 03:30:00,
2013-12-08 20:35:00,5.7,-3.8,26.94,NNW,338,1.7,1.7,64,0.00,,,0.00,VWS V14.01,2013-12-09 03:35:00,
2013-12-08 20:40:00,5.9,-3.6,26.95,NW,315,3.8,3.8,64,0.00,,,0.00,VWS V14.01,2013-12-09 03:40:00,
2013-12-08 20:45:00,5.9,-3.6,26.94,NW,315,4.6,4.6,64,0.00,,,0.00,VWS V14.01,2013-12-09 03:45:00,
2013-12-08 20:50:00,6.2,-3.7,26.95,NNW,338,3.3,8.5,63,0.00,,,0.00,VWS V14.01,2013-12-09 03:50:00,
2013-12-08 20:55:00,6.4,-3.5,26.95,NW,315,3.5,8.5,63,0.00,,,0.00,VWS V14.01,2013-12-09 03:55:00,
2013-12-08 21:00:00,6.4,-3.5,26.95,NW,315,4.0,4.0,63,0.00,,,0.00,VWS V14.01,2013-12-09 04:00:00,
2013-12-08 21:05:00,6.0,-4.2,26.95,NNW,338,0.0,4.0,62,0.00,,,0.00,VWS V14.01,2013-12-09 04:05:00,
2013-12-08 21:10:00,5.9,-4.3,26.95,North,0,2.0,6.4,62,0.00,,,0.00,VWS V14.01,2013-12-09 04:10:00,
2013-12-08 21:15:00,5.5,-4.7,26.95,North,0,4.6,4.6,62,0.00,,,0.00,VWS V14.01,2013-12-09 04:15:00,
2013-12-08 21:20:00,5.0,-5.2,26.95,NNW,338,2.2,4.6,62,0.00,,,0.00,VWS V14.01,2013-12-09 04:20:00,
2013-12-08 21:26:00,4.8,-5.3,26.95,North,0,3.5,4.6,62,0.00,,,0.00,VWS V14.01,2013-12-09 04:26:00,
2013-12-08 21:31:00,4.1,-6.0,26.96,NW,315,3.1,3.1,62,0.00,,,0.00,VWS V14.01,2013-12-09 04:31:00,
2013-12-08 21:36:00,3.7,-6.4,26.96,North,0,5.5,5.5,62,0.00,,,0.00,VWS V14.01,2013-12-09 04:36:00,
2013-12-08 21:41:00,3.3,-6.8,26.95,North,0,4.2,5.5,62,0.00,,,0.00,VWS V14.01,2013-12-09 04:41:00,
2013-12-08 21:46:00,3.0,-7.1,26.96,NNW,338,5.5,5.5,62,0.00,,,0.00,VWS V14.01,2013-12-09 04:46:00,
2013-12-08 21:51:00,2.8,-6.9,26.96,North,0,5.5,6.0,63,0.00,,,0.00,VWS V14.01,2013-12-09 04:51:00,
2013-12-08 21:56:00,2.8,-6.6,26.96,NNW,338,5.3,6.0,64,0.00,,,0.00,VWS V14.01,2013-12-09 04:56:00,
2013-12-08 22:01:00,2.4,-7.0,26.95,North,0,2.9,2.9,64,0.00,,,0.00,VWS V14.01,2013-12-09 05:01:00,
2013-12-08 22:02:00,2.4,-7.0,26.95,North,0,2.9,2.9,64,0.00,,,0.00,VWS V14.01,2013-12-09 05:02:00,
2013-12-08 22:03:00,2.4,-7.0,26.95,North,0,2.9,2.9,64,0.00,,,0.00,VWS V14.01,2013-12-09 05:03:00,
2013-12-08 22:06:00,2.3,-7.1,26.95,NNW,338,0.0,2.9,64,0.00,,,0.00,VWS V14.01,2013-12-09 05:06:00,
2013-12-08 22:08:00,2.3,-7.1,26.96,NNW,338,0.0,2.9,64,0.00,,,0.00,VWS V14.01,2013-12-09 05:08:00,
2013-12-08 22:12:00,1.9,-7.5,26.96,North,0,0.0,2.9,64,0.00,,,0.00,VWS V14.01,2013-12-09 05:12:00,
2013-12-08 22:17:00,1.7,-7.7,26.96,North,0,0.0,0.0,64,0.00,,,0.00,VWS V14.01,2013-12-09 05:17:00,
2013-12-08 22:22:00,1.4,-7.9,26.96,SSW,202,0.0,0.0,64,0.00,,,0.00,VWS V14.01,2013-12-09 05:22:00,
2013-12-08 22:27:00,0.8,-8.5,26.96,ESE,112,4.2,4.2,64,0.00,,,0.00,VWS V14.01,2013-12-09 05:27:00,
2013-12-08 22:32:00,0.1,-9.2,26.96,ESE,112,0.0,0.0,64,0.00,,,0.00,VWS V14.01,2013-12-09 05:32:00,
2013-12-08 22:37:00,-0.2,-9.8,26.96,ESE,112,0.0,0.0,63,0.00,,,0.00,VWS V14.01,2013-12-09 05:37:00,
2013-12-08 22:42:00,-0.7,-10.3,26.96,ESE,112,0.0,0.0,63,0.00,,,0.00,VWS V14.01,2013-12-09 05:42:00,
2013-12-08 22:47:00,-0.7,-9.9,26.96,ENE,68,0.0,0.0,64,0.00,,,0.00,VWS V14.01,2013-12-09 05:47:00,
2013-12-08 22:52:00,-1.1,-10.3,26.96,North,0,0.0,2.2,64,0.00,,,0.00,VWS V14.01,2013-12-09 05:52:00,
2013-12-08 22:57:00,-1.4,-10.6,26.96,North,0,0.0,2.2,64,0.00,,,0.00,VWS V14.01,2013-12-09 05:57:00,
2013-12-08 23:02:00,-1.6,-10.8,26.96,North,0,0.0,0.0,64,0.00,,,0.00,VWS V14.01,2013-12-09 06:02:00,
2013-12-08 23:07:00,-2.0,-10.9,26.96,North,0,0.0,0.0,65,0.00,,,0.00,VWS V14.01,2013-12-09 06:07:00,
2013-12-08 23:12:00,-2.2,-11.1,26.96,North,0,0.0,0.0,65,0.00,,,0.00,VWS V14.01,2013-12-09 06:12:00,
2013-12-08 23:17:00,-2.3,-11.1,26.96,WSW,248,0.0,0.0,65,0.00,,,0.00,VWS V14.01,2013-12-09 06:17:00,
2013-12-08 23:22:00,-3.1,-11.9,26.96,SSE,158,0.0,0.0,65,0.00,,,0.00,VWS V14.01,2013-12-09 06:22:00,
2013-12-08 23:27:00,-3.6,-12.7,26.97,South,180,0.0,0.0,64,0.00,,,0.00,VWS V14.01,2013-12-09 06:27:00,
2013-12-08 23:32:00,-4.7,-13.8,26.97,NNE,22,2.2,2.2,64,0.00,,,0.00,VWS V14.01,2013-12-09 06:32:00,
2013-12-08 23:37:00,-5.2,-14.2,26.97,North,0,0.0,3.1,64,0.00,,,0.00,VWS V14.01,2013-12-09 06:37:00,
2013-12-08 23:42:00,-5.4,-14.4,26.96,ESE,112,2.0,3.1,64,0.00,,,0.00,VWS V14.01,2013-12-09 06:42:00,
2013-12-08 23:47:00,-5.6,-14.6,26.96,ESE,112,0.0,1.5,64,0.00,,,0.00,VWS V14.01,2013-12-09 06:47:00,
2013-12-08 23:52:00,-5.4,-14.1,26.96,ENE,68,0.0,1.5,65,0.00,,,0.00,VWS V14.01,2013-12-09 06:52:00,
2013-12-08 23:57:00,-5.2,-13.9,26.96,NE,45,0.0,1.5,65,0.00,,,0.00,VWS V14.01,2013-12-09 06:57:00,